createdAt,value
2018-03-24T00:00:43.088Z,99.90
2018-03-24T00:03:10.710Z,99.90
2018-03-24T00:05:38.393Z,99.90
2018-03-24T00:08:06.044Z,99.90
2018-03-24T00:10:33.638Z,99.90
2018-03-24T00:13:01.273Z,99.90
2018-03-24T00:15:28.874Z,99.90
2018-03-24T00:17:56.463Z,99.90
2018-03-24T00:20:25.944Z,99.90
2018-03-24T00:22:54.343Z,99.90
2018-03-24T00:25:21.928Z,99.90
2018-03-24T00:27:49.525Z,99.90
2018-03-24T00:30:17.058Z,99.90
2018-03-24T00:32:44.596Z,99.90
2018-03-24T00:35:12.112Z,99.90
2018-03-24T00:37:39.596Z,99.90
2018-03-24T00:40:07.086Z,99.90
2018-03-24T00:42:35.365Z,99.90
2018-03-24T00:45:02.863Z,99.90
2018-03-24T00:47:30.403Z,99.90
2018-03-24T00:49:58.664Z,99.90
2018-03-24T00:52:26.262Z,99.90
2018-03-24T00:54:53.784Z,99.90
2018-03-24T00:57:21.293Z,99.90
2018-03-24T00:59:48.807Z,99.90
2018-03-24T01:02:16.319Z,99.90
2018-03-24T01:04:43.818Z,99.90
2018-03-24T01:07:11.395Z,99.90
2018-03-24T01:09:38.900Z,99.90
2018-03-24T01:12:06.412Z,99.90
2018-03-24T01:14:34.039Z,99.90
2018-03-24T01:17:01.632Z,99.90
2018-03-24T01:19:29.130Z,99.90
2018-03-24T01:21:56.675Z,99.90
2018-03-24T01:24:24.189Z,99.90
2018-03-24T01:26:52.480Z,99.90
2018-03-24T01:29:20.049Z,99.90
2018-03-24T01:31:47.551Z,99.90
2018-03-24T01:34:15.824Z,99.90
2018-03-24T01:36:43.424Z,99.90
2018-03-24T01:39:11.729Z,99.90
2018-03-24T01:41:39.236Z,99.90
2018-03-24T01:44:06.725Z,99.90
2018-03-24T01:46:34.233Z,99.90
2018-03-24T01:49:01.731Z,99.90
2018-03-24T01:51:29.247Z,99.90
2018-03-24T01:53:56.744Z,99.90
2018-03-24T01:56:25.049Z,99.90
2018-03-24T01:58:52.599Z,99.90
2018-03-24T02:01:20.108Z,99.90
2018-03-24T02:03:47.619Z,99.90
2018-03-24T02:06:15.120Z,99.90
2018-03-24T02:08:42.623Z,99.90
2018-03-24T02:11:10.900Z,99.90
2018-03-24T02:13:39.156Z,99.90
2018-03-24T02:16:07.438Z,99.90
2018-03-24T02:18:35.733Z,99.90
2018-03-24T02:21:09.801Z,99.90
2018-03-24T02:23:37.317Z,99.90
2018-03-24T02:26:04.830Z,99.90
2018-03-24T02:28:32.433Z,99.90
2018-03-24T02:31:00.001Z,99.90
2018-03-24T02:33:27.506Z,99.90
2018-03-24T02:35:55.024Z,99.90
2018-03-24T02:38:22.523Z,99.90
2018-03-24T02:40:50.129Z,99.90
2018-03-24T02:43:17.620Z,99.90
2018-03-24T02:45:45.128Z,99.90
2018-03-24T02:48:13.392Z,99.90
2018-03-24T02:50:40.892Z,99.90
2018-03-24T02:53:08.401Z,99.90
2018-03-24T02:55:35.907Z,99.90
2018-03-24T02:58:03.425Z,99.90
2018-03-24T03:00:31.004Z,99.90
2018-03-24T03:02:58.503Z,99.90
2018-03-24T03:05:26.024Z,99.90
2018-03-24T03:07:53.520Z,99.90
2018-03-24T03:10:21.028Z,99.90
2018-03-24T03:12:49.305Z,99.90
2018-03-24T03:15:17.576Z,99.90
2018-03-24T03:17:45.863Z,99.90
2018-03-24T03:20:14.130Z,99.90
2018-03-24T03:22:42.407Z,99.90
2018-03-24T03:25:10.671Z,99.90
2018-03-24T03:27:38.274Z,99.90
2018-03-24T03:30:05.789Z,99.90
2018-03-24T03:32:33.375Z,99.90
2018-03-24T03:35:01.636Z,99.90
2018-03-24T03:37:29.143Z,99.90
2018-03-24T03:39:56.815Z,99.90
2018-03-24T03:42:24.323Z,99.90
2018-03-24T03:44:52.587Z,99.90
2018-03-24T03:47:20.096Z,99.90
2018-03-24T03:49:47.647Z,99.90
2018-03-24T03:52:15.192Z,99.90
2018-03-24T03:54:42.675Z,99.90
2018-03-24T03:57:10.178Z,99.90
2018-03-24T03:59:37.783Z,99.90
2018-03-24T04:02:05.327Z,99.90
2018-03-24T04:04:33.588Z,99.90
2018-03-24T04:07:01.889Z,99.90
2018-03-24T04:09:29.382Z,99.90
2018-03-24T04:11:56.895Z,99.90
2018-03-24T04:14:24.464Z,99.90
2018-03-24T04:16:51.971Z,99.90
2018-03-24T04:19:19.471Z,99.90
2018-03-24T04:21:47.747Z,99.90
2018-03-24T04:24:15.308Z,99.90
2018-03-24T04:26:42.827Z,99.90
2018-03-24T04:29:10.335Z,99.90
2018-03-24T04:31:37.870Z,99.90
2018-03-24T04:34:06.150Z,99.90
2018-03-24T04:36:34.448Z,99.90
2018-03-24T04:39:02.011Z,99.90
2018-03-24T04:41:29.563Z,99.90
2018-03-24T04:43:57.054Z,99.90
2018-03-24T04:46:24.681Z,99.90
2018-03-24T04:48:52.255Z,99.90
2018-03-24T04:51:19.809Z,99.90
2018-03-24T04:53:47.394Z,99.90
2018-03-24T04:56:15.019Z,99.90
2018-03-24T04:58:43.511Z,99.90
2018-03-24T05:01:11.020Z,99.90
2018-03-24T05:03:38.510Z,99.90
2018-03-24T05:06:06.075Z,99.90
2018-03-24T05:08:33.611Z,99.90
2018-03-24T05:11:01.121Z,99.90
2018-03-24T05:13:28.624Z,99.90
2018-03-24T05:15:56.212Z,99.90
2018-03-24T05:18:24.466Z,99.90
2018-03-24T05:20:52.063Z,99.90
2018-03-24T05:23:19.580Z,99.90
2018-03-24T05:25:48.669Z,99.90
2018-03-24T05:28:16.165Z,99.90
2018-03-24T05:30:44.448Z,99.90
2018-03-24T05:33:12.023Z,99.90
2018-03-24T05:35:39.530Z,99.90
2018-03-24T05:38:07.824Z,99.90
2018-03-24T05:40:36.082Z,99.90
2018-03-24T05:43:03.576Z,99.90
2018-03-24T05:45:31.969Z,99.90
2018-03-24T05:47:59.520Z,99.90
2018-03-24T05:50:27.017Z,99.90
2018-03-24T05:52:54.689Z,99.90
2018-03-24T05:55:22.188Z,99.90
2018-03-24T05:57:50.460Z,99.90
2018-03-24T06:00:18.736Z,99.90
2018-03-24T06:02:47.111Z,99.90
2018-03-24T06:05:14.646Z,99.90
2018-03-24T06:07:42.983Z,99.90
2018-03-24T06:10:11.028Z,99.90
2018-03-24T06:12:39.327Z,99.90
2018-03-24T06:15:06.885Z,99.90
2018-03-24T06:17:34.410Z,99.90
2018-03-24T06:20:02.685Z,99.90
2018-03-24T06:22:30.258Z,99.90
2018-03-24T06:24:58.540Z,99.90
2018-03-24T06:27:26.837Z,99.90
2018-03-24T06:29:54.398Z,99.90
2018-03-24T06:32:21.931Z,99.90
2018-03-24T06:34:49.483Z,99.90
2018-03-24T06:37:18.397Z,99.90
2018-03-24T06:39:46.717Z,99.90
2018-03-24T06:42:14.350Z,99.90
2018-03-24T06:44:41.956Z,99.90
2018-03-24T06:47:09.578Z,99.90
2018-03-24T06:49:37.147Z,99.90
2018-03-24T06:52:04.816Z,99.90
2018-03-24T06:54:32.337Z,99.90
2018-03-24T06:56:59.860Z,99.90
2018-03-24T06:59:27.371Z,99.90
2018-03-24T07:01:54.932Z,99.90
2018-03-24T07:04:22.478Z,99.90
2018-03-24T07:06:50.756Z,99.90
2018-03-24T07:09:19.007Z,99.90
2018-03-24T07:11:46.510Z,99.90
2018-03-24T07:14:14.041Z,99.90
2018-03-24T07:16:42.309Z,99.90
2018-03-24T07:19:10.574Z,99.90
2018-03-24T07:21:38.091Z,99.90
2018-03-24T07:24:05.677Z,99.90
2018-03-24T07:26:33.206Z,99.90
2018-03-24T07:29:00.745Z,99.90
2018-03-24T07:31:28.244Z,99.90
2018-03-24T07:33:55.755Z,99.90
2018-03-24T07:36:24.056Z,99.90
2018-03-24T07:38:51.597Z,99.90
2018-03-24T07:41:19.088Z,99.90
2018-03-24T07:43:46.591Z,99.90
2018-03-24T07:46:14.847Z,99.90
2018-03-24T07:48:42.442Z,99.90
2018-03-24T07:51:10.834Z,99.90
2018-03-24T07:53:38.408Z,99.90
2018-03-24T07:56:05.901Z,99.90
2018-03-24T07:58:33.419Z,99.90
2018-03-24T08:01:00.939Z,99.90
2018-03-24T08:03:28.436Z,99.90
2018-03-24T08:05:55.969Z,99.90
2018-03-24T08:08:24.231Z,99.90
2018-03-24T08:10:51.836Z,99.90
2018-03-24T08:13:19.451Z,99.90
2018-03-24T08:15:47.048Z,99.90
2018-03-24T08:18:14.553Z,99.90
2018-03-24T08:20:42.171Z,99.90
2018-03-24T08:23:09.700Z,99.90
2018-03-24T08:25:37.189Z,99.90
2018-03-24T08:28:04.736Z,99.90
2018-03-24T08:30:33.020Z,99.90
2018-03-24T08:33:00.524Z,99.90
2018-03-24T08:35:28.039Z,99.90
2018-03-24T08:37:55.530Z,99.90
2018-03-24T08:40:23.025Z,99.90
2018-03-24T08:42:50.603Z,99.90
2018-03-24T08:45:18.855Z,99.90
2018-03-24T08:47:46.452Z,99.90
2018-03-24T08:50:13.979Z,99.90
2018-03-24T08:52:41.551Z,99.90
2018-03-24T08:55:09.881Z,99.90
2018-03-24T08:57:37.400Z,99.90
2018-03-24T09:00:04.895Z,99.90
2018-03-24T09:02:32.387Z,99.90
2018-03-24T09:04:59.989Z,99.90
2018-03-24T09:07:27.552Z,99.90
2018-03-24T09:09:55.096Z,99.90
2018-03-24T09:12:22.652Z,99.90
2018-03-24T09:14:50.937Z,99.90
2018-03-24T09:17:18.468Z,99.90
2018-03-24T09:19:45.966Z,99.90
2018-03-24T09:22:13.496Z,99.90
2018-03-24T09:24:41.123Z,99.90
2018-03-24T09:27:08.627Z,99.90
2018-03-24T09:29:36.904Z,98.60
2018-03-24T09:32:05.181Z,99.20
2018-03-24T09:34:33.452Z,99.10
2018-03-24T09:37:01.704Z,98.70
2018-03-24T09:39:29.204Z,98.70
2018-03-24T09:41:56.718Z,98.40
2018-03-24T09:44:24.208Z,98.90
2018-03-24T09:46:52.469Z,97.50
2018-03-24T09:49:19.969Z,97.50
2018-03-24T09:51:47.464Z,97.60
2018-03-24T09:54:14.955Z,96.50
2018-03-24T09:56:43.348Z,95.10
2018-03-24T09:59:10.859Z,95.10
2018-03-24T10:01:38.348Z,94.40
2018-03-24T10:04:06.682Z,92.10
2018-03-24T10:06:34.185Z,92.10
2018-03-24T10:09:02.445Z,88.60
2018-03-24T10:11:29.953Z,88.60
2018-03-24T10:13:57.494Z,92.30
2018-03-24T10:16:25.255Z,92.60
2018-03-24T10:18:52.784Z,92.30
2018-03-24T10:24:27.163Z,93.30
2018-03-24T10:26:54.672Z,93.30
2018-03-24T10:29:22.183Z,93.10
2018-03-24T10:31:49.732Z,95.00
2018-03-24T10:34:18.003Z,94.20
2018-03-24T10:36:45.513Z,94.20
2018-03-24T10:39:13.023Z,95.40
2018-03-24T10:41:40.585Z,94.50
2018-03-24T10:44:08.859Z,94.10
2018-03-24T10:46:37.187Z,95.10
2018-03-24T10:49:04.683Z,95.10
2018-03-24T10:51:32.967Z,96.20
2018-03-24T10:54:01.248Z,94.90
2018-03-24T10:56:29.509Z,95.40
2018-03-24T10:58:56.995Z,95.40
2018-03-24T11:01:24.547Z,95.90
2018-03-24T11:03:52.044Z,95.90
2018-03-24T11:06:19.537Z,95.60
2018-03-24T11:08:47.076Z,96.40
2018-03-24T11:11:14.594Z,96.90
2018-03-24T11:13:42.143Z,97.20
2018-03-24T11:16:09.692Z,97.20
2018-03-24T11:18:38.064Z,95.70
2018-03-24T11:21:05.584Z,95.70
2018-03-24T11:23:33.105Z,95.80
2018-03-24T11:26:00.598Z,96.00
2018-03-24T11:28:28.208Z,96.50
2018-03-24T11:30:55.727Z,96.20
2018-03-24T11:33:23.211Z,96.70
2018-03-24T11:35:50.707Z,96.20
2018-03-24T11:38:18.286Z,95.70
2018-03-24T11:40:45.825Z,94.70
2018-03-24T11:43:13.316Z,94.90
2018-03-24T11:45:41.033Z,92.00
2018-03-24T11:48:09.384Z,91.60
2018-03-24T11:50:37.669Z,92.30
2018-03-24T11:53:05.188Z,92.30
2018-03-24T11:55:32.796Z,94.30
2018-03-24T11:58:01.203Z,93.40
2018-03-24T12:00:28.708Z,93.30
2018-03-24T12:02:56.224Z,94.00
2018-03-24T12:05:23.767Z,93.60
2018-03-24T12:07:51.322Z,94.40
2018-03-24T12:10:19.580Z,93.10
2018-03-24T12:12:47.855Z,92.40
2018-03-24T12:15:16.160Z,91.30
2018-03-24T12:17:44.631Z,91.10
2018-03-24T12:20:12.900Z,90.90
2018-03-24T12:22:41.184Z,85.40
2018-03-24T12:25:09.447Z,89.90
2018-03-24T12:27:37.034Z,89.80
2018-03-24T12:30:04.567Z,90.40
2018-03-24T12:32:32.836Z,93.00
2018-03-24T12:35:00.416Z,92.90
2018-03-24T12:37:28.706Z,92.80
2018-03-24T12:39:56.187Z,92.70
2018-03-24T12:42:24.056Z,93.90
2018-03-24T12:44:51.581Z,93.60
2018-03-24T12:47:19.835Z,88.80
2018-03-24T12:49:48.095Z,91.60
2018-03-24T12:52:15.699Z,91.60
2018-03-24T12:54:43.196Z,91.00
2018-03-24T12:57:10.732Z,91.50
2018-03-24T12:59:38.244Z,92.30
2018-03-24T13:02:06.516Z,92.70
2018-03-24T13:04:34.036Z,92.70
2018-03-24T13:07:01.559Z,94.90
2018-03-24T13:09:29.811Z,94.30
2018-03-24T13:11:57.316Z,94.20
2018-03-24T13:14:24.831Z,93.10
2018-03-24T13:16:52.430Z,92.70
2018-03-24T13:19:20.686Z,91.30
2018-03-24T13:21:48.224Z,91.20
2018-03-24T13:24:15.818Z,90.70
2018-03-24T13:26:43.310Z,91.20
2018-03-24T13:29:10.837Z,91.10
2018-03-24T13:31:38.342Z,91.30
2018-03-24T13:34:05.859Z,92.20
2018-03-24T13:36:33.400Z,92.00
2018-03-24T13:39:01.685Z,92.40
2018-03-24T13:41:29.959Z,92.20
2018-03-24T13:43:57.508Z,92.20
2018-03-24T13:46:25.764Z,91.10
2018-03-24T13:48:53.258Z,91.00
2018-03-24T13:51:20.775Z,90.90
2018-03-24T13:53:48.276Z,91.80
2018-03-24T13:56:15.780Z,91.60
2018-03-24T13:58:43.316Z,92.20
2018-03-24T14:01:10.817Z,92.40
2018-03-24T14:03:38.333Z,92.20
2018-03-24T14:06:05.858Z,91.40
2018-03-24T14:08:34.106Z,85.20
2018-03-24T14:11:01.708Z,85.20
2018-03-24T14:13:29.978Z,88.60
2018-03-24T14:15:58.283Z,88.60
2018-03-24T14:18:25.739Z,88.60
2018-03-24T14:20:53.264Z,86.50
2018-03-24T14:23:21.515Z,89.30
2018-03-24T14:25:49.007Z,89.30
2018-03-24T14:28:17.305Z,91.10
2018-03-24T14:30:44.795Z,91.10
2018-03-24T14:33:12.312Z,90.90
2018-03-24T14:35:39.820Z,90.60
2018-03-24T14:38:07.308Z,91.10
2018-03-24T14:40:35.575Z,92.00
2018-03-24T14:43:03.092Z,92.00
2018-03-24T14:45:30.588Z,92.10
2018-03-24T14:47:58.176Z,91.70
2018-03-24T14:50:26.469Z,91.50
2018-03-24T14:52:54.014Z,91.50
2018-03-24T14:55:22.269Z,91.50
2018-03-24T14:57:49.791Z,91.50
2018-03-24T15:00:17.348Z,91.30
2018-03-24T15:02:44.863Z,91.40
2018-03-24T15:05:13.143Z,91.50
2018-03-24T15:07:41.442Z,91.50
2018-03-24T15:10:08.970Z,91.40
2018-03-24T15:12:37.280Z,93.30
2018-03-24T15:15:04.779Z,93.30
2018-03-24T15:17:32.270Z,92.10
2018-03-24T15:20:00.655Z,92.60
2018-03-24T15:22:28.932Z,92.50
2018-03-24T15:24:56.432Z,92.50
2018-03-24T15:27:23.956Z,92.10
2018-03-24T15:30:03.377Z,92.50
2018-03-24T15:35:33.056Z,92.00
2018-03-24T15:38:00.669Z,91.80
2018-03-24T15:40:28.920Z,92.00
2018-03-24T15:42:56.529Z,92.00
2018-03-24T15:45:24.075Z,92.10
2018-03-24T15:47:51.612Z,92.20
2018-03-24T15:50:19.091Z,92.40
2018-03-24T15:52:47.395Z,92.70
2018-03-24T15:55:14.926Z,92.70
2018-03-24T15:57:43.229Z,92.40
2018-03-24T16:00:10.764Z,92.40
2018-03-24T16:02:38.315Z,92.40
2018-03-24T16:05:06.597Z,93.40
2018-03-24T16:07:34.884Z,93.60
2018-03-24T16:10:02.372Z,93.60
2018-03-24T16:12:29.856Z,93.60
2018-03-24T16:14:57.376Z,93.60
2018-03-24T16:17:24.865Z,93.80
2018-03-24T16:19:52.380Z,93.00
2018-03-24T16:22:19.887Z,93.20
2018-03-24T16:24:47.387Z,93.50
2018-03-24T16:27:15.648Z,93.40
2018-03-24T16:29:43.931Z,93.80
2018-03-24T16:32:12.241Z,93.90
2018-03-24T16:34:39.816Z,93.90
2018-03-24T16:37:07.324Z,94.00
2018-03-24T16:39:35.592Z,94.20
2018-03-24T16:42:03.090Z,94.20
2018-03-24T16:44:30.615Z,94.30
2018-03-24T16:46:58.892Z,94.40
2018-03-24T16:49:27.202Z,94.80
2018-03-24T16:51:54.719Z,95.10
2018-03-24T16:54:22.991Z,94.40
2018-03-24T16:56:50.470Z,94.40
2018-03-24T16:59:18.739Z,95.10
2018-03-24T17:01:46.995Z,94.60
2018-03-24T17:04:14.494Z,94.60
2018-03-24T17:06:42.028Z,95.00
2018-03-24T17:09:10.322Z,95.60
2018-03-24T17:11:37.932Z,95.30
2018-03-24T17:14:05.437Z,95.10
2018-03-24T17:16:32.996Z,95.70
2018-03-24T17:19:01.252Z,95.50
2018-03-24T17:21:28.787Z,95.50
2018-03-24T17:23:56.304Z,95.20
2018-03-24T17:26:23.848Z,95.50
2018-03-24T17:28:52.123Z,96.10
2018-03-24T17:31:20.397Z,96.10
2018-03-24T17:33:48.655Z,96.30
2018-03-24T17:36:16.174Z,96.20
2018-03-24T17:38:43.716Z,96.10
2018-03-24T17:41:11.159Z,96.50
2018-03-24T17:43:38.684Z,96.30
2018-03-24T17:46:06.176Z,96.00
2018-03-24T17:48:34.460Z,96.30
2018-03-24T17:51:01.979Z,96.30
2018-03-24T17:53:29.476Z,96.50
2018-03-24T17:55:56.988Z,96.60
2018-03-24T17:58:24.498Z,97.10
2018-03-24T18:00:51.993Z,96.90
2018-03-24T18:03:19.492Z,97.20
2018-03-24T18:05:47.775Z,97.70
2018-03-24T18:08:16.143Z,97.40
2018-03-24T18:10:44.433Z,97.60
2018-03-24T18:13:12.702Z,97.70
2018-03-24T18:15:40.971Z,98.10
2018-03-24T18:18:09.276Z,98.10
2018-03-24T18:20:36.848Z,98.10
2018-03-24T18:23:04.410Z,98.30
2018-03-24T18:25:31.908Z,98.20
2018-03-24T18:27:59.424Z,98.30
2018-03-24T18:30:26.908Z,98.50
2018-03-24T18:32:54.399Z,98.70
2018-03-24T18:35:22.688Z,99.10
2018-03-24T18:37:50.959Z,99.50
2018-03-24T18:40:19.210Z,99.60
2018-03-24T18:42:46.725Z,99.60
2018-03-24T18:45:14.215Z,99.80
2018-03-24T18:47:41.719Z,99.90
2018-03-24T18:50:10.001Z,99.90
2018-03-24T18:52:37.500Z,99.90
2018-03-24T18:55:05.027Z,99.90
2018-03-24T18:57:32.547Z,99.90
2018-03-24T19:00:00.059Z,99.90
2018-03-24T19:02:27.568Z,99.90
2018-03-24T19:04:55.098Z,99.90
2018-03-24T19:07:22.619Z,99.90
2018-03-24T19:09:50.125Z,99.90
2018-03-24T19:12:17.657Z,99.90
2018-03-24T19:14:45.164Z,99.90
2018-03-24T19:17:12.775Z,99.90
2018-03-24T19:19:40.292Z,99.90
2018-03-24T19:22:07.805Z,99.90
2018-03-24T19:24:35.331Z,99.90
2018-03-24T19:27:02.859Z,99.90
2018-03-24T19:29:30.358Z,99.90
2018-03-24T19:31:57.928Z,99.90
2018-03-24T19:34:25.473Z,99.90
2018-03-24T19:36:53.769Z,99.90
2018-03-24T19:39:21.260Z,99.90
2018-03-24T19:41:48.794Z,99.90
2018-03-24T19:44:16.288Z,99.90
2018-03-24T19:46:43.812Z,99.90
2018-03-24T19:49:11.311Z,99.90
2018-03-24T19:51:38.828Z,99.90
2018-03-24T19:54:06.350Z,99.90
2018-03-24T19:56:34.634Z,99.90
2018-03-24T19:59:02.123Z,99.90
2018-03-24T20:01:29.612Z,99.90
2018-03-24T20:03:57.169Z,99.90
2018-03-24T20:06:24.634Z,99.90
2018-03-24T20:08:52.175Z,99.90
2018-03-24T20:11:19.648Z,99.90
2018-03-24T20:13:47.131Z,99.90
2018-03-24T20:16:15.387Z,99.90
2018-03-24T20:18:43.007Z,99.90
2018-03-24T20:21:10.527Z,99.90
2018-03-24T20:23:38.789Z,99.90
2018-03-24T20:26:07.077Z,99.90
2018-03-24T20:28:35.334Z,99.90
2018-03-24T20:31:02.833Z,99.90
2018-03-24T20:33:30.352Z,99.90
2018-03-24T20:35:57.840Z,99.90
2018-03-24T20:38:26.113Z,99.90
2018-03-24T20:40:54.386Z,99.90
2018-03-24T20:43:22.635Z,99.90
2018-03-24T20:45:50.228Z,99.90
2018-03-24T20:48:18.626Z,99.90
2018-03-24T20:50:46.276Z,99.90
2018-03-24T20:53:13.775Z,99.90
2018-03-24T20:55:41.304Z,99.90
2018-03-24T20:58:08.863Z,99.90
2018-03-24T21:00:36.369Z,99.90
2018-03-24T21:03:03.907Z,99.90
2018-03-24T21:05:31.403Z,99.90
2018-03-24T21:07:58.917Z,99.90
2018-03-24T21:10:26.550Z,99.90
2018-03-24T21:12:54.038Z,99.90
2018-03-24T21:15:21.551Z,99.90
2018-03-24T21:17:49.827Z,99.90
2018-03-24T21:20:18.086Z,99.90
2018-03-24T21:22:45.618Z,99.90
2018-03-24T21:25:13.241Z,99.90
2018-03-24T21:27:40.795Z,99.90
2018-03-24T21:30:09.073Z,99.90
2018-03-24T21:32:37.349Z,99.90
2018-03-24T21:35:05.629Z,99.90
2018-03-24T21:37:33.904Z,99.90
2018-03-24T21:40:02.183Z,99.90
2018-03-24T21:42:29.688Z,99.90
2018-03-24T21:44:57.383Z,99.90
2018-03-24T21:47:24.956Z,99.90
2018-03-24T21:49:53.214Z,99.90
2018-03-24T21:52:20.720Z,99.90
2018-03-24T21:54:48.233Z,99.90
2018-03-24T21:57:16.494Z,99.90
2018-03-24T21:59:44.760Z,99.90
2018-03-24T22:02:12.270Z,99.90
2018-03-24T22:04:39.767Z,99.90
2018-03-24T22:07:07.260Z,99.90
2018-03-24T22:09:36.274Z,99.90
2018-03-24T22:12:03.775Z,99.90
2018-03-24T22:14:31.270Z,99.90
2018-03-24T22:16:58.849Z,99.90
2018-03-24T22:19:27.152Z,99.90
2018-03-24T22:21:54.707Z,99.90
2018-03-24T22:24:22.229Z,99.90
2018-03-24T22:26:49.726Z,99.90
2018-03-24T22:29:17.240Z,99.90
2018-03-24T22:31:44.748Z,99.90
2018-03-24T22:34:12.324Z,99.90
2018-03-24T22:36:39.935Z,99.90
2018-03-24T22:39:08.228Z,99.90
2018-03-24T22:41:35.717Z,99.90
2018-03-24T22:44:03.200Z,99.90
2018-03-24T22:46:31.122Z,99.90
2018-03-24T22:48:58.633Z,99.90
2018-03-24T22:51:26.939Z,99.90
2018-03-24T22:53:55.259Z,99.90
2018-03-24T22:56:22.892Z,99.90
2018-03-24T22:58:50.447Z,99.90
2018-03-24T23:01:24.576Z,99.90
2018-03-24T23:03:52.085Z,99.90
2018-03-24T23:06:19.583Z,99.90
2018-03-24T23:08:47.110Z,99.90
2018-03-24T23:11:14.701Z,99.90
2018-03-24T23:13:42.259Z,99.90
2018-03-24T23:16:09.783Z,99.90
2018-03-24T23:18:38.040Z,99.90
2018-03-24T23:21:05.563Z,99.90
2018-03-24T23:23:33.092Z,99.90
2018-03-24T23:26:01.372Z,99.90
2018-03-24T23:28:29.659Z,99.90
2018-03-24T23:30:58.044Z,99.90
2018-03-24T23:33:25.605Z,99.90
2018-03-24T23:35:53.164Z,99.90
2018-03-24T23:38:20.704Z,99.90
2018-03-24T23:40:49.084Z,99.90
2018-03-24T23:43:17.345Z,99.90
2018-03-24T23:45:44.931Z,99.90
2018-03-24T23:48:12.448Z,99.90
2018-03-24T23:50:39.939Z,99.90
2018-03-24T23:53:08.276Z,99.90
2018-03-24T23:55:35.788Z,99.90
2018-03-24T23:58:03.283Z,99.90
